Kirk Sandall, United Kingdom
Current Conditions -  °F | °C
As of 11:50 AM on Tuesday 21 Oct 2014 (Local Time) from EGCN Reporting Station
Broken Clouds Broken Clouds  
Wind Chill: 50°   Ceiling: 3300
Heat Index: 50°   Visibility: 6mi
Dew Point: 41°   Wind: 21mph
Humidity: 71%   Direction: 270°W
Pressure: 29.56"   Gusts: 32mph
Location:  53.56°N, 1.07°W
Report Text: EGCN 211050Z 27018G28KT 9999 FEW022 BKN033 10/05 Q1001
Loading
Personal Weather Stations






























Interactive Weather Map
Tropical Storm Tracking
New forecast layout! Learn more

10-Day Weather Forecast

Advertisements
Track Severe Weather on mobile